Terminal Aerodrome Forecast
Issued by NWS Topeka, KS

Home | Current Version | Previous Version | Text Only | Print | Product List | Glossary Off
Versions: 1 2 3 4 5 6 7 8 9 10 11 12 13 14 15 16 17 18 19 20 21 22 23 24 25 26 27 28

000
FTUS43 KTOP 232300
TAFTOP
TAF
KTOP 232326Z 2400/2424 06007KT P6SM FEW060 BKN130
     FM240300 08011KT P6SM VCSH BKN035
     FM240500 09013KT 5SM SHRA BR VCTS OVC015CB
     FM241200 10010KT 3SM -DZ BR OVC008
     FM242000 27009KT 6SM BR BKN020=

USA.gov is the U.S. government's official web portal to all federal, state and local government web resources and services.